createdAt,value
2022-12-10T00:02:24.420Z,68.77
2022-12-10T00:04:51.616Z,82.97
2022-12-10T00:07:18.721Z,88.37
2022-12-10T00:09:45.832Z,75.27
2022-12-10T00:12:14.263Z,75.47
2022-12-10T00:14:41.363Z,87.20
2022-12-10T00:17:12.738Z,84.53
2022-12-10T00:19:40.250Z,84.33
2022-12-10T00:22:07.312Z,79.40
2022-12-10T00:24:34.447Z,87.23
2022-12-10T00:27:01.511Z,85.63
2022-12-10T00:29:29.984Z,82.60
2022-12-10T00:31:57.070Z,80.03
2022-12-10T00:34:24.171Z,95.87
2022-12-10T00:36:51.264Z,76.93
2022-12-10T00:39:19.318Z,82.90
2022-12-10T00:41:46.620Z,93.90
2022-12-10T00:44:14.157Z,99.83
2022-12-10T00:46:42.699Z,91.77
2022-12-10T00:49:09.853Z,88.70
2022-12-10T00:51:37.083Z,101.57
2022-12-10T00:54:04.301Z,83.53
2022-12-10T00:56:32.176Z,85.80
2022-12-10T00:58:59.604Z,82.23
2022-12-10T01:01:27.871Z,91.93
2022-12-10T01:03:57.050Z,88.13
2022-12-10T01:06:24.987Z,85.83
2022-12-10T01:08:53.436Z,85.27
2022-12-10T01:11:21.282Z,89.73
2022-12-10T01:13:49.276Z,96.20
2022-12-10T01:16:18.885Z,96.43
2022-12-10T01:18:46.122Z,116.00
2022-12-10T01:21:16.606Z,110.10
2022-12-10T01:23:44.571Z,103.10
2022-12-10T01:26:12.523Z,84.67
2022-12-10T01:28:40.477Z,88.47
2022-12-10T01:31:09.418Z,92.13
2022-12-10T01:33:38.030Z,101.37
2022-12-10T01:36:05.676Z,103.20
2022-12-10T01:38:34.272Z,83.33
2022-12-10T01:41:01.863Z,106.20
2022-12-10T01:43:29.283Z,89.40
2022-12-10T01:45:56.441Z,105.63
2022-12-10T01:48:23.636Z,90.87
2022-12-10T01:50:51.582Z,95.47
2022-12-10T01:53:18.676Z,84.40
2022-12-10T01:55:48.591Z,99.97
2022-12-10T01:58:16.729Z,101.73
2022-12-10T02:00:50.243Z,103.37
2022-12-10T02:03:20.564Z,114.37
2022-12-10T02:05:51.314Z,96.20
2022-12-10T02:08:21.075Z,93.67
2022-12-10T02:10:56.518Z,94.77
2022-12-10T02:13:28.064Z,108.60
2022-12-10T02:15:58.928Z,97.27
2022-12-10T02:18:28.690Z,100.33
2022-12-10T02:20:57.783Z,89.13
2022-12-10T02:23:26.747Z,101.47
2022-12-10T02:25:57.953Z,116.50
2022-12-10T02:28:32.198Z,108.20
2022-12-10T02:31:01.655Z,102.97
2022-12-10T02:33:32.771Z,108.30
2022-12-10T02:36:00.329Z,95.93
2022-12-10T02:38:28.766Z,95.23
2022-12-10T02:41:01.085Z,108.33
2022-12-10T02:43:28.733Z,90.53
2022-12-10T02:45:56.909Z,106.33
2022-12-10T02:48:25.641Z,92.93
2022-12-10T02:50:52.795Z,105.27
2022-12-10T02:53:19.920Z,95.47
2022-12-10T02:55:53.553Z,102.23
2022-12-10T02:58:25.457Z,85.80
2022-12-10T03:00:58.985Z,95.33
2022-12-10T03:03:33.076Z,102.17
2022-12-10T03:06:04.600Z,100.33
2022-12-10T03:08:35.123Z,102.50
2022-12-10T03:11:05.243Z,111.23
2022-12-10T03:13:34.719Z,102.30
2022-12-10T03:16:02.503Z,95.27
2022-12-10T03:18:32.975Z,91.03
2022-12-10T03:21:01.261Z,99.60
2022-12-10T03:23:29.666Z,106.50
2022-12-10T03:25:57.063Z,112.17
2022-12-10T03:28:24.901Z,108.20
2022-12-10T03:30:53.169Z,98.33
2022-12-10T03:33:20.517Z,101.13
2022-12-10T03:35:49.352Z,100.77
2022-12-10T03:38:16.663Z,88.23
2022-12-10T03:40:43.963Z,95.13
2022-12-10T03:43:13.608Z,102.83
2022-12-10T03:45:41.021Z,98.50
2022-12-10T03:48:08.201Z,94.70
2022-12-10T03:50:35.316Z,88.43
2022-12-10T03:53:03.728Z,88.83
2022-12-10T03:55:30.854Z,81.00
2022-12-10T03:57:57.946Z,86.27
2022-12-10T04:00:25.028Z,77.53
2022-12-10T04:02:52.140Z,74.17
2022-12-10T04:05:19.331Z,78.63
2022-12-10T04:07:46.453Z,69.30
2022-12-10T04:10:14.939Z,67.13
2022-12-10T04:12:42.048Z,76.47
2022-12-10T04:15:09.684Z,68.60
2022-12-10T04:17:36.853Z,69.80
2022-12-10T04:20:04.628Z,69.80
2022-12-10T04:22:31.986Z,83.20
2022-12-10T04:24:59.062Z,83.17
2022-12-10T04:27:28.822Z,71.17
2022-12-10T04:29:56.456Z,74.87
2022-12-10T04:32:24.569Z,80.83
2022-12-10T04:34:51.734Z,83.33
2022-12-10T04:37:19.308Z,72.03
2022-12-10T04:39:46.775Z,73.13
2022-12-10T04:42:14.160Z,67.23
2022-12-10T04:44:42.628Z,72.60
2022-12-10T04:47:10.523Z,69.53
2022-12-10T04:49:38.069Z,73.07
2022-12-10T04:52:05.811Z,66.67
2022-12-10T04:54:37.297Z,68.27
2022-12-10T04:57:06.382Z,86.67
2022-12-10T04:59:33.624Z,69.70
2022-12-10T05:02:02.095Z,73.33
2022-12-10T05:04:29.192Z,67.23
2022-12-10T05:06:56.323Z,61.27
2022-12-10T05:09:23.384Z,64.47
2022-12-10T05:11:50.524Z,65.23
2022-12-10T05:14:17.684Z,62.70
2022-12-10T05:16:44.797Z,68.73
2022-12-10T05:19:13.307Z,63.03
2022-12-10T05:21:40.374Z,63.77
2022-12-10T05:24:07.632Z,54.17
2022-12-10T05:26:34.726Z,57.07
2022-12-10T05:29:01.835Z,63.27
2022-12-10T05:31:30.642Z,60.87
2022-12-10T05:33:58.450Z,59.33
2022-12-10T05:36:27.937Z,61.60
2022-12-10T05:38:56.069Z,61.63
2022-12-10T05:41:27.259Z,68.40
2022-12-10T05:43:54.959Z,62.43
2022-12-10T05:46:23.203Z,65.63
2022-12-10T05:48:50.406Z,66.20
2022-12-10T05:51:18.364Z,62.13
2022-12-10T05:53:47.117Z,56.03
2022-12-10T05:56:15.421Z,59.37
2022-12-10T05:58:43.593Z,60.03
2022-12-10T06:01:11.901Z,67.13
2022-12-10T06:03:39.049Z,67.30
2022-12-10T06:06:06.886Z,59.33
2022-12-10T06:08:34.246Z,62.00
2022-12-10T06:11:03.483Z,49.63
2022-12-10T06:13:30.592Z,62.03
2022-12-10T06:15:57.720Z,64.20
2022-12-10T06:18:24.857Z,65.50
2022-12-10T06:20:51.978Z,63.17
2022-12-10T06:23:19.078Z,67.27
2022-12-10T06:25:46.180Z,64.33
2022-12-10T06:28:15.208Z,59.57
2022-12-10T06:30:42.307Z,63.37
2022-12-10T06:33:09.378Z,69.47
2022-12-10T06:35:36.481Z,67.77
2022-12-10T06:38:03.589Z,62.80
2022-12-10T06:40:30.726Z,67.97
2022-12-10T06:42:57.837Z,58.37
2022-12-10T06:45:26.264Z,69.77
2022-12-10T06:47:53.353Z,73.33
2022-12-10T06:50:20.433Z,73.50
2022-12-10T06:52:53.303Z,74.17
2022-12-10T06:55:21.902Z,73.27
2022-12-10T06:57:51.884Z,74.60
2022-12-10T07:00:22.068Z,84.83
2022-12-10T07:02:50.895Z,78.13
2022-12-10T07:05:19.071Z,78.70
2022-12-10T07:07:46.197Z,84.90
2022-12-10T07:10:14.455Z,98.47
2022-12-10T07:12:41.537Z,95.40
2022-12-10T07:15:09.335Z,98.00
2022-12-10T07:17:36.412Z,89.30
2022-12-10T07:20:05.200Z,94.70
2022-12-10T07:22:32.312Z,96.70
2022-12-10T07:24:59.432Z,98.80
2022-12-10T07:27:26.670Z,88.03
2022-12-10T07:29:53.782Z,92.53
2022-12-10T07:32:20.881Z,99.30
2022-12-10T07:34:47.982Z,84.60
2022-12-10T07:37:16.416Z,82.97
2022-12-10T07:39:43.499Z,99.73
2022-12-10T07:42:10.589Z,86.47
2022-12-10T07:44:39.102Z,91.20
2022-12-10T07:47:06.286Z,93.50
2022-12-10T07:49:33.415Z,95.03
2022-12-10T07:52:00.518Z,92.90
2022-12-10T07:54:28.957Z,106.77
2022-12-10T07:56:56.042Z,100.87
2022-12-10T07:59:23.133Z,95.90
2022-12-10T08:01:50.241Z,103.13
2022-12-10T08:04:17.395Z,108.80
2022-12-10T08:06:44.500Z,123.20
2022-12-10T08:09:12.069Z,106.87
2022-12-10T08:11:40.546Z,103.60
2022-12-10T08:14:07.673Z,108.33
2022-12-10T08:16:34.800Z,102.77
2022-12-10T08:19:02.213Z,107.57
2022-12-10T08:21:30.400Z,106.73
2022-12-10T08:23:57.652Z,106.60
2022-12-10T08:26:25.714Z,107.33
2022-12-10T08:28:56.622Z,98.43
2022-12-10T08:31:24.072Z,117.13
2022-12-10T08:33:51.246Z,97.37
2022-12-10T08:36:19.031Z,94.20
2022-12-10T08:38:46.764Z,106.47
2022-12-10T08:41:14.582Z,93.23
2022-12-10T08:43:41.829Z,100.37
2022-12-10T08:46:10.703Z,84.90
2022-12-10T08:48:38.563Z,84.70
2022-12-10T08:51:06.608Z,85.07
2022-12-10T08:53:33.717Z,92.03
2022-12-10T08:56:00.819Z,83.23
2022-12-10T08:58:27.958Z,79.00
2022-12-10T09:00:55.122Z,97.17
2022-12-10T09:03:23.600Z,90.13
2022-12-10T09:05:50.777Z,93.93
2022-12-10T09:08:17.969Z,78.27
2022-12-10T09:10:45.154Z,81.53
2022-12-10T09:13:12.248Z,92.33
2022-12-10T09:15:39.371Z,85.53
2022-12-10T09:18:06.466Z,85.23
2022-12-10T09:20:34.922Z,74.00
2022-12-10T09:23:01.999Z,75.60
2022-12-10T09:25:29.145Z,88.50
2022-12-10T09:27:56.244Z,88.50
2022-12-10T09:30:23.382Z,82.17
2022-12-10T09:32:50.509Z,80.67
2022-12-10T09:35:17.591Z,87.30
2022-12-10T09:37:46.019Z,85.30
2022-12-10T09:40:15.994Z,78.80
2022-12-10T09:42:49.984Z,77.07
2022-12-10T09:45:20.321Z,74.10
2022-12-10T09:47:51.678Z,84.27
2022-12-10T09:50:22.207Z,80.67
2022-12-10T09:52:50.768Z,89.13
2022-12-10T09:55:18.769Z,79.53
2022-12-10T09:57:47.706Z,80.43
2022-12-10T10:00:20.536Z,87.33
2022-12-10T10:02:47.782Z,80.20
2022-12-10T10:05:17.285Z,81.10
2022-12-10T10:07:46.709Z,74.73
2022-12-10T10:10:20.764Z,61.63
2022-12-10T10:12:48.183Z,69.87
2022-12-10T10:15:16.901Z,62.67
2022-12-10T10:17:44.924Z,73.77
2022-12-10T10:20:12.146Z,75.43
2022-12-10T10:22:39.273Z,73.73
2022-12-10T10:25:07.499Z,76.33
2022-12-10T10:27:35.937Z,79.07
2022-12-10T10:30:05.499Z,66.70
2022-12-10T10:32:46.049Z,74.43
2022-12-10T10:35:20.645Z,77.17
2022-12-10T10:37:47.724Z,74.57
2022-12-10T10:40:22.824Z,70.67
2022-12-10T10:42:53.895Z,68.00
2022-12-10T10:45:35.030Z,79.50
2022-12-10T10:48:06.659Z,70.50
2022-12-10T10:50:38.344Z,76.60
2022-12-10T10:53:20.649Z,71.60
2022-12-10T10:55:47.754Z,78.07
2022-12-10T10:58:18.651Z,76.80
2022-12-10T11:00:54.858Z,77.83
2022-12-10T11:03:22.226Z,70.23
2022-12-10T11:05:49.960Z,63.10
2022-12-10T11:08:18.518Z,70.00
2022-12-10T11:10:48.832Z,65.43
2022-12-10T11:13:24.265Z,67.90
2022-12-10T11:15:57.498Z,67.50
2022-12-10T11:18:26.726Z,70.67
2022-12-10T11:21:01.318Z,77.07
2022-12-10T11:23:29.085Z,72.63
2022-12-10T11:25:59.564Z,69.17
2022-12-10T11:28:35.055Z,76.97
2022-12-10T11:31:13.604Z,76.27
2022-12-10T11:33:44.192Z,70.70
2022-12-10T11:36:18.847Z,60.53
2022-12-10T11:38:48.146Z,63.50
2022-12-10T11:41:20.193Z,67.63
2022-12-10T11:43:57.103Z,73.70
2022-12-10T11:46:35.662Z,89.17
2022-12-10T11:49:10.722Z,72.37
2022-12-10T11:51:41.715Z,68.53
2022-12-10T11:54:16.386Z,74.60
2022-12-10T11:56:45.137Z,69.87
2022-12-10T11:59:18.272Z,71.13
2022-12-10T12:01:51.038Z,64.23
2022-12-10T12:04:24.435Z,67.17
2022-12-10T12:06:59.049Z,61.17
2022-12-10T12:09:31.439Z,73.03
2022-12-10T12:12:05.448Z,66.80
2022-12-10T12:14:36.344Z,59.23
2022-12-10T12:17:06.585Z,65.80
2022-12-10T12:19:37.365Z,70.37
2022-12-10T12:22:08.128Z,76.77
2022-12-10T12:24:37.314Z,66.13
2022-12-10T12:27:09.995Z,66.57
2022-12-10T12:29:41.457Z,64.10
2022-12-10T12:32:12.904Z,56.10
2022-12-10T12:34:46.306Z,64.20
2022-12-10T12:37:16.188Z,67.90
2022-12-10T12:39:45.692Z,50.97
2022-12-10T12:42:17.399Z,70.53
2022-12-10T12:44:50.301Z,57.73
2022-12-10T12:47:20.843Z,56.73
2022-12-10T12:49:49.249Z,53.53
2022-12-10T12:52:22.053Z,60.07
2022-12-10T12:54:50.110Z,63.23
2022-12-10T12:57:23.797Z,59.20
2022-12-10T12:59:56.580Z,63.00
2022-12-10T13:02:28.101Z,58.87
2022-12-10T13:04:55.365Z,63.67
2022-12-10T13:07:29.887Z,62.73
2022-12-10T13:10:11.867Z,78.50
2022-12-10T13:12:47.678Z,67.30
2022-12-10T13:15:22.986Z,63.27
2022-12-10T13:18:03.836Z,61.87
2022-12-10T13:20:32.413Z,63.63
2022-12-10T13:23:00.672Z,72.57
2022-12-10T13:25:39.650Z,57.57
2022-12-10T13:28:22.026Z,60.33
2022-12-10T13:31:04.025Z,59.33
2022-12-10T13:33:45.359Z,59.30
2022-12-10T13:36:12.643Z,66.83
2022-12-10T13:38:59.659Z,66.20
2022-12-10T13:41:26.804Z,69.33
2022-12-10T13:43:55.196Z,63.70
2022-12-10T13:46:23.560Z,57.83
2022-12-10T13:48:52.380Z,68.07
2022-12-10T13:51:37.235Z,58.43
2022-12-10T13:54:15.406Z,65.43
2022-12-10T13:56:49.759Z,64.97
2022-12-10T13:59:19.769Z,62.77
2022-12-10T14:01:50.828Z,69.93
2022-12-10T14:04:33.741Z,57.63
2022-12-10T14:07:00.932Z,66.10
2022-12-10T14:09:31.270Z,81.67
2022-12-10T14:11:59.573Z,56.77
2022-12-10T14:14:30.615Z,60.53
2022-12-10T14:17:00.153Z,61.33
2022-12-10T14:19:30.171Z,67.07
2022-12-10T14:21:58.988Z,62.47
2022-12-10T14:24:27.344Z,56.30
2022-12-10T14:26:57.799Z,57.03
2022-12-10T14:29:29.172Z,64.67
2022-12-10T14:31:57.096Z,56.50
2022-12-10T14:34:26.843Z,65.23
2022-12-10T14:36:55.424Z,65.90
2022-12-10T14:39:26.847Z,69.57
2022-12-10T14:41:56.402Z,73.60
2022-12-10T14:44:23.895Z,54.83
2022-12-10T14:46:51.652Z,59.97
2022-12-10T14:49:20.556Z,66.23
2022-12-10T14:51:47.663Z,68.13
2022-12-10T14:54:29.303Z,63.03
2022-12-10T14:56:57.178Z,67.07
2022-12-10T14:59:28.409Z,73.83
2022-12-10T15:01:56.268Z,68.90
2022-12-10T15:04:26.933Z,55.70
2022-12-10T15:06:58.412Z,75.43
2022-12-10T15:09:26.704Z,71.07
2022-12-10T15:11:56.134Z,65.40
2022-12-10T15:14:24.306Z,70.87
2022-12-10T15:16:51.453Z,72.80
2022-12-10T15:19:20.688Z,62.27
2022-12-10T15:21:48.576Z,48.67
2022-12-10T15:24:17.125Z,57.00
2022-12-10T15:26:45.403Z,53.23
2022-12-10T15:29:45.944Z,52.30
2022-12-10T15:32:15.057Z,50.00
2022-12-10T15:34:43.518Z,51.67
2022-12-10T15:37:17.263Z,52.13
2022-12-10T15:39:47.058Z,69.07
2022-12-10T15:42:28.416Z,51.33
2022-12-10T15:44:57.727Z,62.27
2022-12-10T15:47:26.920Z,63.83
2022-12-10T15:49:56.075Z,63.20
2022-12-10T15:52:24.138Z,53.33
2022-12-10T15:54:52.271Z,62.17
2022-12-10T15:57:20.372Z,60.43
2022-12-10T15:59:48.672Z,62.40
2022-12-10T16:02:25.706Z,61.43
2022-12-10T16:04:54.258Z,59.10
2022-12-10T16:07:21.367Z,54.70
2022-12-10T16:09:48.605Z,63.53
2022-12-10T16:12:16.483Z,62.20
2022-12-10T16:14:46.648Z,56.70
2022-12-10T16:17:13.742Z,69.83
2022-12-10T16:19:40.847Z,62.63
2022-12-10T16:22:09.249Z,60.43
2022-12-10T16:24:39.582Z,62.63
2022-12-10T16:27:13.327Z,68.47
2022-12-10T16:29:40.481Z,67.20
2022-12-10T16:32:07.565Z,73.83
2022-12-10T16:34:34.672Z,71.47
2022-12-10T16:37:01.751Z,68.03
2022-12-10T16:39:31.130Z,58.33
2022-12-10T16:41:58.350Z,59.67
2022-12-10T16:44:25.442Z,67.80
2022-12-10T16:46:52.761Z,63.67
2022-12-10T16:49:19.839Z,62.90
2022-12-10T16:51:46.988Z,72.63
2022-12-10T16:54:14.084Z,63.20
2022-12-10T16:56:42.536Z,70.83
2022-12-10T16:59:09.632Z,73.27
2022-12-10T17:01:36.863Z,67.27
2022-12-10T17:04:04.076Z,62.27
2022-12-10T17:06:31.500Z,62.10
2022-12-10T17:08:58.605Z,70.53
2022-12-10T17:11:27.090Z,70.53
2022-12-10T17:13:55.502Z,66.30
2022-12-10T17:16:23.369Z,66.27
2022-12-10T17:18:50.650Z,63.80
2022-12-10T17:21:17.764Z,70.67
2022-12-10T17:23:45.198Z,64.30
2022-12-10T17:26:17.083Z,66.97
2022-12-10T17:28:44.182Z,67.57
2022-12-10T17:31:12.625Z,62.57
2022-12-10T17:33:39.688Z,67.97
2022-12-10T17:36:10.083Z,60.63
2022-12-10T17:38:37.179Z,56.00
2022-12-10T17:41:04.596Z,51.40
2022-12-10T17:43:31.683Z,55.40
2022-12-10T17:45:59.178Z,59.63
2022-12-10T17:48:27.638Z,50.07
2022-12-10T17:50:54.746Z,53.87
2022-12-10T17:53:21.875Z,48.37
2022-12-10T17:55:51.494Z,46.87
2022-12-10T17:58:18.587Z,51.47
2022-12-10T18:00:45.672Z,53.57
2022-12-10T18:03:12.744Z,52.27
2022-12-10T18:05:41.269Z,58.97
2022-12-10T18:08:08.402Z,56.00
2022-12-10T18:10:35.603Z,60.53
2022-12-10T18:13:03.033Z,56.00
2022-12-10T18:15:31.085Z,64.60
2022-12-10T18:17:58.330Z,63.17
2022-12-10T18:20:26.193Z,65.20
2022-12-10T18:22:55.037Z,66.30
2022-12-10T18:25:23.169Z,62.93
2022-12-10T18:27:50.637Z,58.27
2022-12-10T18:30:18.614Z,65.30
2022-12-10T18:32:45.858Z,57.27
2022-12-10T18:35:13.079Z,58.33
2022-12-10T18:37:40.574Z,56.00
2022-12-10T18:40:10.220Z,56.40
2022-12-10T18:42:39.344Z,51.50
2022-12-10T18:45:10.105Z,55.33
2022-12-10T18:47:37.435Z,49.73
2022-12-10T18:50:04.898Z,51.57
2022-12-10T18:52:32.008Z,58.40
2022-12-10T18:54:59.092Z,55.67
2022-12-10T18:57:38.391Z,55.20
2022-12-10T19:00:13.572Z,48.00
2022-12-10T19:02:40.710Z,50.97
2022-12-10T19:05:08.454Z,43.23
2022-12-10T19:07:35.784Z,52.87
2022-12-10T19:10:02.883Z,60.57
2022-12-10T19:12:31.289Z,54.50
2022-12-10T19:14:58.372Z,50.53
2022-12-10T19:17:25.461Z,61.23
2022-12-10T19:19:52.581Z,55.20
2022-12-10T19:22:19.660Z,50.10
2022-12-10T19:24:46.757Z,56.33
2022-12-10T19:27:13.819Z,56.40
2022-12-10T19:29:42.298Z,62.27
2022-12-10T19:32:09.430Z,50.90
2022-12-10T19:34:36.540Z,61.00
2022-12-10T19:37:03.771Z,65.63
2022-12-10T19:39:30.949Z,66.27
2022-12-10T19:41:58.037Z,55.23
2022-12-10T19:44:25.141Z,64.13
2022-12-10T19:46:53.587Z,57.87
2022-12-10T19:49:20.937Z,64.73
2022-12-10T19:51:48.358Z,62.27
2022-12-10T19:54:15.646Z,47.27
2022-12-10T19:56:42.970Z,46.00
2022-12-10T19:59:15.161Z,50.37
2022-12-10T20:01:42.977Z,48.87
2022-12-10T20:04:11.576Z,50.07
2022-12-10T20:06:40.365Z,65.77
2022-12-10T20:09:11.193Z,50.80
2022-12-10T20:11:38.264Z,49.83
2022-12-10T20:14:05.371Z,50.63
2022-12-10T20:16:33.023Z,48.40
2022-12-10T20:19:00.131Z,53.13
2022-12-10T20:21:28.556Z,55.60
2022-12-10T20:24:01.168Z,51.73
2022-12-10T20:26:31.364Z,48.63
2022-12-10T20:28:58.476Z,59.43
2022-12-10T20:31:25.612Z,54.07
2022-12-10T20:33:52.746Z,55.83
2022-12-10T20:36:21.605Z,58.07
2022-12-10T20:38:50.315Z,53.67
2022-12-10T20:41:17.919Z,55.00
2022-12-10T20:43:45.334Z,51.83
2022-12-10T20:46:14.445Z,47.67
2022-12-10T20:48:41.612Z,59.07
2022-12-10T20:51:08.700Z,68.40
2022-12-10T20:53:38.978Z,64.07
2022-12-10T20:56:11.124Z,59.50
2022-12-10T20:58:38.234Z,64.03
2022-12-10T21:01:05.393Z,58.37
2022-12-10T21:03:32.616Z,64.33
2022-12-10T21:05:59.825Z,56.63
2022-12-10T21:08:27.021Z,61.37
2022-12-10T21:10:54.372Z,56.90
2022-12-10T21:13:25.009Z,51.50
2022-12-10T21:15:52.598Z,61.83
2022-12-10T21:18:20.163Z,63.07
2022-12-10T21:20:47.717Z,56.00
2022-12-10T21:23:16.617Z,57.90
2022-12-10T21:25:43.713Z,57.47
2022-12-10T21:28:10.977Z,60.23
2022-12-10T21:30:39.392Z,52.03
2022-12-10T21:33:06.745Z,57.37
2022-12-10T21:35:33.841Z,53.90
2022-12-10T21:38:01.112Z,69.37
2022-12-10T21:40:28.208Z,72.53
2022-12-10T21:42:55.338Z,74.57
2022-12-10T21:45:22.432Z,63.83
2022-12-10T21:47:53.839Z,74.13
2022-12-10T21:50:20.973Z,62.97
2022-12-10T21:52:48.103Z,60.83
2022-12-10T21:55:15.443Z,57.87
2022-12-10T21:57:42.526Z,72.47
2022-12-10T22:00:10.294Z,58.67
2022-12-10T22:02:40.380Z,61.70
2022-12-10T22:05:09.843Z,63.57
2022-12-10T22:07:37.284Z,48.30
2022-12-10T22:10:04.921Z,47.60
2022-12-10T22:12:32.008Z,52.80
2022-12-10T22:14:59.149Z,47.10
2022-12-10T22:17:26.580Z,57.43
2022-12-10T22:19:53.771Z,51.47
2022-12-10T22:22:22.197Z,49.87
2022-12-10T22:24:49.292Z,52.47
2022-12-10T22:27:16.382Z,52.33
2022-12-10T22:29:44.461Z,45.40
2022-12-10T22:32:11.573Z,52.27
2022-12-10T22:34:44.890Z,59.33
2022-12-10T22:37:12.714Z,59.10
2022-12-10T22:39:41.318Z,60.97
2022-12-10T22:42:08.433Z,66.80
2022-12-10T22:44:35.608Z,54.03
2022-12-10T22:47:02.736Z,57.10
2022-12-10T22:49:32.156Z,57.43
2022-12-10T22:52:02.848Z,60.43
2022-12-10T22:54:30.087Z,51.57
2022-12-10T22:56:58.522Z,65.37
2022-12-10T22:59:25.632Z,58.63
2022-12-10T23:01:52.799Z,61.07
2022-12-10T23:04:19.989Z,58.97
2022-12-10T23:06:47.071Z,70.47
2022-12-10T23:09:14.135Z,67.23
2022-12-10T23:11:41.232Z,66.23
2022-12-10T23:14:09.696Z,80.77
2022-12-10T23:16:36.814Z,73.43
2022-12-10T23:19:03.984Z,80.67
2022-12-10T23:21:31.096Z,86.33
2022-12-10T23:23:58.160Z,75.90
2022-12-10T23:26:25.263Z,86.77
2022-12-10T23:28:52.325Z,89.10
2022-12-10T23:31:20.852Z,89.17
2022-12-10T23:33:48.010Z,91.73
2022-12-10T23:36:15.103Z,90.90
2022-12-10T23:38:42.213Z,94.73
2022-12-10T23:41:10.174Z,90.43
2022-12-10T23:43:37.406Z,103.50
2022-12-10T23:46:05.391Z,104.27
2022-12-10T23:48:34.134Z,89.20
2022-12-10T23:51:01.594Z,111.33
2022-12-10T23:53:29.024Z,106.67
2022-12-10T23:55:56.174Z,111.50
2022-12-10T23:58:23.853Z,96.90
